Weather at Capen Airport

Public forecast

Using degrees Fahrenheit for public forecast. Weather courtesy of forecast.io.

Closest aviation weather report (METAR) to Capen Airport

Closest report is Roben Hood Airport, 10.0 nm (18.6 km) NW. Retrieved 2020/10/01 06:15 UTC (0 seconds ago):

KRQB 010615Z AUTO 26003KT 10SM CLR 08/07 A2977 RMK AO2 T00750067

Closest aviation forecast (TAF) to Capen Airport

Closest forecast is Gerald R. Ford International Airport, 45.5 nm (84.3 km) SSW. Retrieved 2020/10/01 06:39 UTC (0 seconds ago):

TAF KGRR 010537Z 0106/0206 24006KT P6SM SKC FM011400 25005KT P6SM -SHRA OVC040 FM011600 30010G20KT 5SM -SHRA BKN025 OVC040 FM011800 31012G22KT P6SM VCSH BKN050 FM012300 33010KT P6SM BKN060 FM020500 35005KT P6SM FEW120